Time,TemperatureF,DewpointF,PressureIn,WindDirection,WindDirectionDegrees,WindSpeedMPH,WindSpeedGustMPH,Humidity,HourlyPrecipIn,Conditions,Clouds,dailyrainin,SolarRadiationWatts/m^2,SoftwareType,DateUTC
2013-11-27 00:01:00,45.5,44.4,30.02,ESE,119,0.0,5.0,96,0.05,,,0.12,0,org.tom.weather,2013-11-27 05:01:00,
2013-11-27 00:06:00,45.6,44.5,30.01,SE,126,1.0,3.0,96,0.05,,,0.00,0,org.tom.weather,2013-11-27 05:06:00,
2013-11-27 00:11:00,45.7,44.6,30.01,SE,126,0.0,3.0,96,0.06,,,0.01,0,org.tom.weather,2013-11-27 05:11:00,
2013-11-27 00:16:00,45.9,44.8,30.00,SE,126,0.0,2.0,96,0.05,,,0.01,0,org.tom.weather,2013-11-27 05:16:00,
2013-11-27 00:21:00,46.1,45.0,30.00,SSE,159,0.0,5.0,96,0.05,,,0.02,0,org.tom.weather,2013-11-27 05:21:00,
2013-11-27 00:26:00,46.3,45.2,30.00,SSE,160,2.0,5.0,96,0.06,,,0.02,0,org.tom.weather,2013-11-27 05:26:00,
2013-11-27 00:31:00,46.5,45.4,29.99,SE,126,2.0,5.0,96,0.05,,,0.03,0,org.tom.weather,2013-11-27 05:31:00,
2013-11-27 00:36:00,46.7,45.6,29.99,SE,144,3.0,4.0,96,0.07,,,0.04,0,org.tom.weather,2013-11-27 05:36:00,
2013-11-27 00:41:00,46.8,45.7,29.99,South,176,5.0,5.0,96,0.07,,,0.05,0,org.tom.weather,2013-11-27 05:41:00,
2013-11-27 00:46:00,46.9,45.8,29.99,South,175,3.0,6.0,96,0.07,,,0.05,0,org.tom.weather,2013-11-27 05:46:00,
2013-11-27 00:51:00,47.0,45.9,29.98,SSE,162,3.0,5.0,96,0.08,,,0.06,0,org.tom.weather,2013-11-27 05:51:00,
2013-11-27 00:56:00,47.1,46.0,29.98,South,177,2.0,5.0,96,0.07,,,0.07,0,org.tom.weather,2013-11-27 05:56:00,
2013-11-27 01:01:00,47.3,46.2,29.97,SSE,157,3.0,6.0,96,0.09,,,0.09,0,org.tom.weather,2013-11-27 06:01:00,
2013-11-27 01:06:00,47.4,46.3,29.97,SSE,164,2.0,7.0,96,0.10,,,0.11,0,org.tom.weather,2013-11-27 06:06:00,
2013-11-27 01:11:00,47.4,46.3,29.97,SSE,163,2.0,7.0,96,0.11,,,0.12,0,org.tom.weather,2013-11-27 06:11:00,
2013-11-27 01:16:00,47.5,46.4,29.96,SSE,157,1.0,6.0,96,0.11,,,0.12,0,org.tom.weather,2013-11-27 06:16:00,
2013-11-27 01:21:00,47.7,46.6,29.95,South,173,1.0,9.0,96,0.11,,,0.14,0,org.tom.weather,2013-11-27 06:21:00,
2013-11-27 01:26:00,47.8,46.7,29.95,SE,137,1.0,9.0,96,0.12,,,0.14,0,org.tom.weather,2013-11-27 06:26:00,
2013-11-27 01:31:00,48.0,46.9,29.94,SSE,167,1.0,11.0,96,0.11,,,0.15,0,org.tom.weather,2013-11-27 06:31:00,
2013-11-27 01:37:00,48.1,47.0,29.94,South,182,3.0,11.0,96,0.12,,,0.16,0,org.tom.weather,2013-11-27 06:37:00,
2013-11-27 01:42:00,48.2,47.4,29.94,SE,146,2.0,13.0,97,0.12,,,0.17,0,org.tom.weather,2013-11-27 06:42:00,
2013-11-27 01:46:00,48.4,47.6,29.93,SE,139,1.0,8.0,97,0.12,,,0.18,0,org.tom.weather,2013-11-27 06:46:00,
2013-11-27 01:52:00,48.4,47.6,29.92,ESE,119,2.0,6.0,97,0.14,,,0.20,0,org.tom.weather,2013-11-27 06:52:00,
2013-11-27 01:57:00,48.4,47.3,29.92,South,171,3.0,7.0,96,0.14,,,0.22,0,org.tom.weather,2013-11-27 06:57:00,
2013-11-27 02:02:00,48.5,47.4,29.91,ESE,106,2.0,10.0,96,0.13,,,0.23,0,org.tom.weather,2013-11-27 07:02:00,
2013-11-27 02:07:00,48.6,47.8,29.90,SE,128,2.0,9.0,97,0.13,,,0.24,0,org.tom.weather,2013-11-27 07:07:00,
2013-11-27 02:12:00,48.8,48.0,29.90,East,98,2.0,12.0,97,0.13,,,0.25,0,org.tom.weather,2013-11-27 07:12:00,
2013-11-27 02:17:00,49.0,48.2,29.89,SE,129,4.0,14.0,97,0.13,,,0.26,0,org.tom.weather,2013-11-27 07:17:00,
2013-11-27 02:22:00,49.2,48.4,29.89,ESE,103,3.0,12.0,97,0.12,,,0.26,0,org.tom.weather,2013-11-27 07:22:00,
2013-11-27 02:27:00,49.2,48.4,29.88,SE,137,5.0,12.0,97,0.11,,,0.26,0,org.tom.weather,2013-11-27 07:27:00,
2013-11-27 02:32:00,49.3,48.5,29.87,ESE,113,6.0,12.0,97,0.11,,,0.27,0,org.tom.weather,2013-11-27 07:32:00,
2013-11-27 02:37:00,49.4,48.6,29.87,SSE,157,2.0,10.0,97,0.11,,,0.27,0,org.tom.weather,2013-11-27 07:37:00,
2013-11-27 02:42:00,49.5,48.7,29.86,SE,137,1.0,7.0,97,0.09,,,0.28,0,org.tom.weather,2013-11-27 07:42:00,
2013-11-27 02:47:00,49.6,48.8,29.86,SSE,164,3.0,11.0,97,0.09,,,0.28,0,org.tom.weather,2013-11-27 07:47:00,
2013-11-27 02:52:00,49.7,48.9,29.85,SSE,156,3.0,7.0,97,0.07,,,0.28,0,org.tom.weather,2013-11-27 07:52:00,
2013-11-27 02:57:00,49.7,48.9,29.85,SSE,148,3.0,11.0,97,0.05,,,0.28,0,org.tom.weather,2013-11-27 07:57:00,
2013-11-27 03:02:00,49.8,49.0,29.84,SE,136,3.0,8.0,97,0.04,,,0.29,0,org.tom.weather,2013-11-27 08:02:00,
2013-11-27 03:07:00,49.8,49.0,29.83,SE,138,5.0,6.0,97,0.05,,,0.30,0,org.tom.weather,2013-11-27 08:07:00,
2013-11-27 03:12:00,49.9,49.1,29.82,SSE,165,2.0,6.0,97,0.04,,,0.31,0,org.tom.weather,2013-11-27 08:12:00,
2013-11-27 03:17:00,50.0,49.2,29.82,South,185,7.0,10.0,97,0.06,,,0.32,0,org.tom.weather,2013-11-27 08:17:00,
2013-11-27 03:22:00,49.9,49.1,29.81,SSW,194,4.0,10.0,97,0.06,,,0.32,0,org.tom.weather,2013-11-27 08:22:00,
2013-11-27 03:27:00,50.0,49.2,29.80,SSE,163,2.0,13.0,97,0.06,,,0.33,0,org.tom.weather,2013-11-27 08:27:00,
2013-11-27 03:32:00,50.0,49.2,29.79,SSE,161,4.0,9.0,97,0.07,,,0.34,0,org.tom.weather,2013-11-27 08:32:00,
2013-11-27 03:37:00,50.0,49.2,29.79,ESE,121,3.0,7.0,97,0.07,,,0.34,0,org.tom.weather,2013-11-27 08:37:00,
2013-11-27 03:42:00,50.0,49.2,29.78,SE,144,2.0,9.0,97,0.06,,,0.34,0,org.tom.weather,2013-11-27 08:42:00,
2013-11-27 03:47:00,50.1,49.3,29.78,SSE,155,3.0,11.0,97,0.06,,,0.34,0,org.tom.weather,2013-11-27 08:47:00,
2013-11-27 03:52:00,50.1,49.3,29.77,SE,131,5.0,7.0,97,0.06,,,0.34,0,org.tom.weather,2013-11-27 08:52:00,
2013-11-27 03:57:00,50.1,49.3,29.76,SSE,161,4.0,6.0,97,0.06,,,0.34,0,org.tom.weather,2013-11-27 08:57:00,
2013-11-27 04:02:00,50.2,49.4,29.76,South,178,4.0,12.0,97,0.05,,,0.34,0,org.tom.weather,2013-11-27 09:02:00,
2013-11-27 04:07:00,50.2,49.4,29.75,ESE,115,3.0,12.0,97,0.05,,,0.35,0,org.tom.weather,2013-11-27 09:07:00,
2013-11-27 04:12:00,50.2,49.4,29.75,South,178,3.0,13.0,97,0.04,,,0.35,0,org.tom.weather,2013-11-27 09:12:00,
2013-11-27 04:17:00,50.2,49.4,29.74,SE,132,1.0,16.0,97,0.04,,,0.36,0,org.tom.weather,2013-11-27 09:17:00,
2013-11-27 04:22:00,50.2,49.4,29.73,SSE,164,1.0,16.0,97,0.03,,,0.36,0,org.tom.weather,2013-11-27 09:22:00,
2013-11-27 04:27:00,50.3,49.5,29.73,ESE,118,2.0,7.0,97,0.03,,,0.36,0,org.tom.weather,2013-11-27 09:27:00,
2013-11-27 04:32:00,50.4,49.6,29.72,SE,124,3.0,14.0,97,0.02,,,0.36,0,org.tom.weather,2013-11-27 09:32:00,
2013-11-27 04:37:00,50.5,49.7,29.71,South,175,2.0,15.0,97,0.02,,,0.36,0,org.tom.weather,2013-11-27 09:37:00,
2013-11-27 04:42:00,50.7,49.9,29.71,South,175,4.0,15.0,97,0.02,,,0.36,0,org.tom.weather,2013-11-27 09:42:00,
2013-11-27 04:47:00,50.7,49.9,29.70,SSE,153,4.0,11.0,97,0.03,,,0.37,0,org.tom.weather,2013-11-27 09:47:00,
2013-11-27 04:52:00,50.8,50.0,29.68,SSE,156,1.0,12.0,97,0.03,,,0.37,0,org.tom.weather,2013-11-27 09:52:00,
2013-11-27 04:57:00,50.8,50.0,29.68,SSE,163,5.0,12.0,97,0.03,,,0.37,0,org.tom.weather,2013-11-27 09:57:00,
2013-11-27 05:03:00,50.9,50.1,29.67,ESE,118,6.0,14.0,97,0.04,,,0.38,0,org.tom.weather,2013-11-27 10:03:00,
2013-11-27 05:08:00,51.0,50.2,29.67,ESE,104,4.0,16.0,97,0.03,,,0.38,0,org.tom.weather,2013-11-27 10:08:00,
2013-11-27 05:13:00,51.3,50.5,29.66,SSE,147,6.0,18.0,97,0.03,,,0.39,0,org.tom.weather,2013-11-27 10:13:00,
2013-11-27 05:18:00,51.3,50.5,29.65,SE,144,3.0,18.0,97,0.03,,,0.39,0,org.tom.weather,2013-11-27 10:18:00,
2013-11-27 05:23:00,51.4,50.6,29.65,SE,137,5.0,15.0,97,0.03,,,0.39,0,org.tom.weather,2013-11-27 10:23:00,
2013-11-27 05:28:00,51.3,50.5,29.64,SE,137,3.0,13.0,97,0.03,,,0.39,0,org.tom.weather,2013-11-27 10:28:00,
2013-11-27 05:33:00,51.3,50.5,29.63,NNE,21,6.0,17.0,97,0.04,,,0.40,0,org.tom.weather,2013-11-27 10:33:00,
2013-11-27 05:38:00,51.4,50.6,29.62,SSE,159,9.0,17.0,97,0.05,,,0.41,0,org.tom.weather,2013-11-27 10:38:00,
2013-11-27 05:43:00,51.5,50.7,29.62,SE,136,6.0,13.0,97,0.05,,,0.42,0,org.tom.weather,2013-11-27 10:43:00,
2013-11-27 05:48:00,51.5,50.7,29.61,East,89,3.0,12.0,97,0.06,,,0.43,0,org.tom.weather,2013-11-27 10:48:00,
2013-11-27 05:53:00,51.6,50.8,29.60,SE,130,4.0,11.0,97,0.07,,,0.44,0,org.tom.weather,2013-11-27 10:53:00,
2013-11-27 05:58:00,51.6,50.8,29.59,SSE,159,7.0,16.0,97,0.06,,,0.44,0,org.tom.weather,2013-11-27 10:58:00,
2013-11-27 06:03:00,51.7,50.8,29.58,ESE,123,6.0,10.0,97,0.07,,,0.45,0,org.tom.weather,2013-11-27 11:03:00,
2013-11-27 06:08:00,51.8,50.9,29.57,SE,140,9.0,10.0,97,0.07,,,0.46,0,org.tom.weather,2013-11-27 11:08:00,
2013-11-27 06:13:00,52.0,51.1,29.56,SE,133,5.0,14.0,97,0.07,,,0.46,0,org.tom.weather,2013-11-27 11:13:00,
2013-11-27 06:18:00,52.1,51.2,29.54,South,171,8.0,14.0,97,0.08,,,0.47,0,org.tom.weather,2013-11-27 11:18:00,
2013-11-27 06:23:00,52.2,51.3,29.53,SE,136,14.0,18.0,97,0.09,,,0.48,0,org.tom.weather,2013-11-27 11:23:00,
2013-11-27 06:28:00,52.4,51.5,29.53,South,182,6.0,18.0,97,0.08,,,0.48,0,org.tom.weather,2013-11-27 11:28:00,
2013-11-27 06:33:00,52.4,51.5,29.51,ENE,69,4.0,13.0,97,0.08,,,0.48,0,org.tom.weather,2013-11-27 11:33:00,
2013-11-27 06:38:00,52.6,51.7,29.51,SE,141,6.0,15.0,97,0.06,,,0.48,0,org.tom.weather,2013-11-27 11:38:00,
2013-11-27 06:43:00,52.8,51.9,29.50,SSE,148,5.0,27.0,97,0.06,,,0.49,0,org.tom.weather,2013-11-27 11:43:00,
2013-11-27 06:48:00,52.8,51.9,29.49,SSW,193,11.0,27.0,97,0.05,,,0.49,0,org.tom.weather,2013-11-27 11:48:00,
2013-11-27 06:53:00,52.9,52.0,29.49,SE,139,5.0,18.0,97,0.05,,,0.49,0,org.tom.weather,2013-11-27 11:53:00,
2013-11-27 06:58:00,52.9,52.0,29.48,ESE,114,4.0,18.0,97,0.05,,,0.49,0,org.tom.weather,2013-11-27 11:58:00,
2013-11-27 07:03:00,52.8,51.9,29.48,South,171,13.0,15.0,97,0.04,,,0.49,0,org.tom.weather,2013-11-27 12:03:00,
2013-11-27 07:08:00,52.8,51.9,29.48,SE,133,7.0,21.0,97,0.04,,,0.50,0,org.tom.weather,2013-11-27 12:08:00,
2013-11-27 07:13:00,52.9,52.0,29.47,SE,138,3.0,21.0,97,0.03,,,0.50,0,org.tom.weather,2013-11-27 12:13:00,
2013-11-27 07:18:00,53.1,52.2,29.47,SE,144,5.0,21.0,97,0.02,,,0.50,0,org.tom.weather,2013-11-27 12:18:00,
2013-11-27 07:23:00,53.1,52.2,29.47,SE,145,3.0,21.0,97,0.02,,,0.50,0,org.tom.weather,2013-11-27 12:23:00,
2013-11-27 07:28:00,53.0,52.1,29.46,SE,137,7.0,16.0,97,0.02,,,0.50,0,org.tom.weather,2013-11-27 12:28:00,
2013-11-27 07:33:00,53.0,52.1,29.45,SSE,149,15.0,20.0,97,0.02,,,0.50,0,org.tom.weather,2013-11-27 12:33:00,
2013-11-27 07:38:00,53.1,52.2,29.46,SSE,163,14.0,19.0,97,0.02,,,0.50,0,org.tom.weather,2013-11-27 12:38:00,
2013-11-27 07:43:00,53.2,52.3,29.45,SSE,167,3.0,17.0,97,0.02,,,0.51,0,org.tom.weather,2013-11-27 12:43:00,
2013-11-27 07:48:00,53.2,52.3,29.45,SSE,167,9.0,19.0,97,0.02,,,0.51,0,org.tom.weather,2013-11-27 12:48:00,
2013-11-27 07:53:00,53.2,52.3,29.45,South,175,8.0,14.0,97,0.02,,,0.51,5,org.tom.weather,2013-11-27 12:53:00,
2013-11-27 07:58:00,53.2,52.3,29.45,South,182,4.0,13.0,97,0.03,,,0.52,5,org.tom.weather,2013-11-27 12:58:00,
2013-11-27 08:03:00,53.2,52.3,29.44,SSE,167,12.0,18.0,97,0.03,,,0.52,5,org.tom.weather,2013-11-27 13:03:00,
2013-11-27 08:08:00,53.2,52.3,29.44,SSE,153,9.0,17.0,97,0.03,,,0.53,5,org.tom.weather,2013-11-27 13:08:00,
2013-11-27 08:13:00,53.4,52.5,29.43,SSE,158,7.0,18.0,97,0.04,,,0.55,0,org.tom.weather,2013-11-27 13:13:00,
2013-11-27 08:18:00,53.7,52.8,29.43,South,184,9.0,16.0,97,0.06,,,0.56,0,org.tom.weather,2013-11-27 13:18:00,
2013-11-27 08:23:00,53.9,53.0,29.43,SSE,157,5.0,16.0,97,0.07,,,0.57,7,org.tom.weather,2013-11-27 13:23:00,
2013-11-27 08:28:00,54.0,53.1,29.42,SSE,159,3.0,15.0,97,0.08,,,0.58,12,org.tom.weather,2013-11-27 13:28:00,
2013-11-27 08:33:00,54.0,53.1,29.42,ESE,123,5.0,14.0,97,0.09,,,0.59,12,org.tom.weather,2013-11-27 13:33:00,
2013-11-27 08:38:00,54.0,53.1,29.41,SSE,163,6.0,15.0,97,0.10,,,0.60,11,org.tom.weather,2013-11-27 13:38:00,
2013-11-27 08:43:00,54.0,53.1,29.41,SSE,159,11.0,12.0,97,0.10,,,0.61,12,org.tom.weather,2013-11-27 13:43:00,
2013-11-27 08:48:00,53.8,52.9,29.41,South,174,4.0,16.0,97,0.11,,,0.62,11,org.tom.weather,2013-11-27 13:48:00,
2013-11-27 08:53:00,53.6,52.7,29.41,South,172,6.0,13.0,97,0.13,,,0.64,11,org.tom.weather,2013-11-27 13:53:00,
2013-11-27 08:58:00,53.6,52.7,29.40,SSE,155,11.0,13.0,97,0.14,,,0.66,14,org.tom.weather,2013-11-27 13:58:00,
2013-11-27 09:03:00,53.8,52.9,29.40,SSE,168,6.0,13.0,97,0.17,,,0.71,11,org.tom.weather,2013-11-27 14:03:00,
2013-11-27 09:08:00,53.9,53.0,29.39,South,188,4.0,11.0,97,0.20,,,0.75,11,org.tom.weather,2013-11-27 14:08:00,
2013-11-27 09:21:00,53.8,52.9,29.39,East,84,3.0,-999.0,97,0.18,,,0.75,12,org.tom.weather,2013-11-27 14:21:00,
2013-11-27 09:26:00,53.7,52.8,29.39,SSW,192,1.0,15.0,97,0.18,,,0.76,14,org.tom.weather,2013-11-27 14:26:00,
2013-11-27 09:31:00,53.8,52.9,29.39,East,98,2.0,14.0,97,0.18,,,0.78,19,org.tom.weather,2013-11-27 14:31:00,
2013-11-27 09:36:00,53.8,52.9,29.39,SSE,167,5.0,13.0,97,0.18,,,0.78,14,org.tom.weather,2013-11-27 14:36:00,
2013-11-27 09:41:00,54.0,53.1,29.39,South,169,6.0,13.0,97,0.17,,,0.78,16,org.tom.weather,2013-11-27 14:41:00,
2013-11-27 09:46:00,54.2,53.6,29.38,SSE,154,8.0,12.0,98,0.16,,,0.78,18,org.tom.weather,2013-11-27 14:46:00,
2013-11-27 09:51:00,54.4,53.5,29.38,South,170,3.0,12.0,97,0.14,,,0.78,16,org.tom.weather,2013-11-27 14:51:00,
2013-11-27 09:56:00,54.2,53.6,29.37,SE,140,0.0,9.0,98,0.12,,,0.78,18,org.tom.weather,2013-11-27 14:56:00,
2013-11-27 10:01:00,54.6,53.7,29.37,SSE,163,2.0,9.0,97,0.08,,,0.79,21,org.tom.weather,2013-11-27 15:01:00,
2013-11-27 10:06:00,55.2,54.6,29.36,South,176,0.0,5.0,98,0.04,,,0.79,19,org.tom.weather,2013-11-27 15:06:00,
2013-11-27 10:11:00,56.3,55.7,29.36,South,188,5.0,11.0,98,0.04,,,0.79,23,org.tom.weather,2013-11-27 15:11:00,
2013-11-27 10:16:00,57.7,57.1,29.35,SW,217,21.0,21.0,98,0.05,,,0.80,33,org.tom.weather,2013-11-27 15:16:00,
2013-11-27 10:22:00,58.6,58.0,29.35,SSW,192,2.0,21.0,98,0.04,,,0.80,47,org.tom.weather,2013-11-27 15:22:00,
2013-11-27 10:27:00,58.9,58.3,29.34,South,186,8.0,19.0,98,0.03,,,0.80,44,org.tom.weather,2013-11-27 15:27:00,
2013-11-27 10:32:00,59.2,58.6,29.34,South,180,9.0,19.0,98,0.02,,,0.80,42,org.tom.weather,2013-11-27 15:32:00,
2013-11-27 10:37:00,59.3,58.7,29.33,SSE,147,3.0,22.0,98,0.02,,,0.80,39,org.tom.weather,2013-11-27 15:37:00,
2013-11-27 10:42:00,59.4,58.8,29.33,SW,229,10.0,21.0,98,0.02,,,0.80,44,org.tom.weather,2013-11-27 15:42:00,
2013-11-27 10:47:00,59.5,58.6,29.32,SSE,168,10.0,15.0,97,0.02,,,0.80,49,org.tom.weather,2013-11-27 15:47:00,
2013-11-27 10:52:00,59.6,58.7,29.32,SSW,205,5.0,26.0,97,0.02,,,0.80,46,org.tom.weather,2013-11-27 15:52:00,
2013-11-27 10:57:00,59.5,58.3,29.32,SW,235,10.0,19.0,96,0.01,,,0.80,51,org.tom.weather,2013-11-27 15:57:00,
2013-11-27 11:02:00,59.5,58.3,29.31,South,179,10.0,17.0,96,0.01,,,0.80,40,org.tom.weather,2013-11-27 16:02:00,
2013-11-27 11:07:00,59.5,58.3,29.31,SW,217,6.0,16.0,96,0.01,,,0.80,35,org.tom.weather,2013-11-27 16:07:00,
2013-11-27 11:12:00,59.4,57.9,29.31,SSW,198,11.0,25.0,95,0.00,,,0.80,39,org.tom.weather,2013-11-27 16:12:00,
2013-11-27 11:17:00,59.4,57.9,29.31,SSE,151,11.0,18.0,95,0.00,,,0.80,26,org.tom.weather,2013-11-27 16:17:00,
2013-11-27 11:23:00,59.3,58.1,29.30,SSE,159,3.0,17.0,96,0.00,,,0.80,33,org.tom.weather,2013-11-27 16:23:00,
2013-11-27 11:28:00,59.1,57.9,29.30,South,173,4.0,12.0,96,0.01,,,0.81,33,org.tom.weather,2013-11-27 16:28:00,
2013-11-27 11:33:00,59.0,57.8,29.30,SSW,213,7.0,18.0,96,0.01,,,0.81,21,org.tom.weather,2013-11-27 16:33:00,
2013-11-27 11:38:00,59.0,57.8,29.30,South,184,4.0,21.0,96,0.01,,,0.82,21,org.tom.weather,2013-11-27 16:38:00,
2013-11-27 11:43:00,58.9,57.7,29.30,SSW,203,5.0,10.0,96,0.02,,,0.83,18,org.tom.weather,2013-11-27 16:43:00,
2013-11-27 11:48:00,58.9,57.7,29.30,SSW,192,4.0,16.0,96,0.04,,,0.84,23,org.tom.weather,2013-11-27 16:48:00,
2013-11-27 11:53:00,58.9,57.7,29.29,South,171,3.0,14.0,96,0.05,,,0.86,23,org.tom.weather,2013-11-27 16:53:00,
2013-11-27 11:58:00,58.8,57.9,29.30,South,182,7.0,13.0,97,0.08,,,0.89,14,org.tom.weather,2013-11-27 16:58:00,
2013-11-27 12:03:00,58.7,57.8,29.29,SSW,202,4.0,13.0,97,0.13,,,0.93,9,org.tom.weather,2013-11-27 17:03:00,
2013-11-27 12:08:00,58.8,57.9,29.29,SSE,168,0.0,10.0,97,0.16,,,0.97,11,org.tom.weather,2013-11-27 17:08:00,
2013-11-27 12:13:00,58.9,58.0,29.29,SSW,202,6.0,13.0,97,0.21,,,1.01,12,org.tom.weather,2013-11-27 17:13:00,
2013-11-27 12:18:00,58.9,58.0,29.29,SSW,201,0.0,14.0,97,0.24,,,1.05,11,org.tom.weather,2013-11-27 17:18:00,
2013-11-27 12:23:00,59.0,58.1,29.29,SSW,207,2.0,14.0,97,0.26,,,1.08,14,org.tom.weather,2013-11-27 17:23:00,
2013-11-27 12:28:00,59.0,58.1,29.28,SW,215,6.0,9.0,97,0.32,,,1.13,25,org.tom.weather,2013-11-27 17:28:00,
2013-11-27 12:33:00,59.0,58.1,29.28,SSW,206,4.0,10.0,97,0.35,,,1.16,21,org.tom.weather,2013-11-27 17:33:00,
2013-11-27 12:38:00,59.1,58.2,29.28,SSW,206,2.0,9.0,97,0.36,,,1.18,19,org.tom.weather,2013-11-27 17:38:00,
2013-11-27 12:43:00,59.1,58.2,29.28,SSW,207,3.0,9.0,97,0.38,,,1.21,18,org.tom.weather,2013-11-27 17:43:00,
2013-11-27 12:48:00,59.0,58.1,29.28,South,180,2.0,12.0,97,0.40,,,1.25,23,org.tom.weather,2013-11-27 17:48:00,
2013-11-27 12:53:00,58.8,57.9,29.27,SSW,192,5.0,6.0,97,0.41,,,1.29,23,org.tom.weather,2013-11-27 17:53:00,
2013-11-27 12:58:00,58.8,57.9,29.27,SSW,193,0.0,6.0,97,0.40,,,1.32,35,org.tom.weather,2013-11-27 17:58:00,
2013-11-27 13:03:00,58.7,57.8,29.26,SSW,193,0.0,3.0,97,0.38,,,1.34,37,org.tom.weather,2013-11-27 18:03:00,
2013-11-27 13:08:00,58.7,57.8,29.26,SSW,192,0.0,2.0,97,0.36,,,1.35,37,org.tom.weather,2013-11-27 18:08:00,
2013-11-27 13:13:00,58.6,57.7,29.26,SSW,192,2.0,2.0,97,0.33,,,1.36,25,org.tom.weather,2013-11-27 18:13:00,
2013-11-27 13:18:00,58.7,57.8,29.25,South,186,0.0,4.0,97,0.30,,,1.37,23,org.tom.weather,2013-11-27 18:18:00,
2013-11-27 13:24:00,58.9,58.3,29.25,South,184,0.0,4.0,98,0.26,,,1.37,19,org.tom.weather,2013-11-27 18:24:00,
2013-11-27 13:29:00,59.1,58.5,29.24,South,185,0.0,4.0,98,0.22,,,1.37,28,org.tom.weather,2013-11-27 18:29:00,
2013-11-27 13:34:00,59.2,58.6,29.24,South,185,0.0,2.0,98,0.21,,,1.38,28,org.tom.weather,2013-11-27 18:34:00,
2013-11-27 13:39:00,59.2,58.6,29.24,South,184,0.0,2.0,98,0.19,,,1.39,37,org.tom.weather,2013-11-27 18:39:00,
2013-11-27 13:44:00,59.2,58.6,29.24,SSW,196,0.0,4.0,98,0.17,,,1.41,35,org.tom.weather,2013-11-27 18:44:00,
2013-11-27 13:49:00,59.3,58.7,29.23,South,190,0.0,6.0,98,0.15,,,1.42,40,org.tom.weather,2013-11-27 18:49:00,
2013-11-27 13:54:00,59.3,58.7,29.22,South,179,2.0,3.0,98,0.11,,,1.42,44,org.tom.weather,2013-11-27 18:54:00,
2013-11-27 13:56:00,59.2,58.6,29.21,South,179,0.0,3.0,98,0.11,,,1.43,47,org.tom.weather,2013-11-27 18:56:00,
2013-11-27 14:01:00,59.3,58.7,29.20,South,178,0.0,3.0,98,0.10,,,1.43,42,org.tom.weather,2013-11-27 19:01:00,
2013-11-27 14:06:00,59.5,58.9,29.20,South,178,0.0,3.0,98,0.08,,,1.43,39,org.tom.weather,2013-11-27 19:06:00,
2013-11-27 14:11:00,59.2,58.6,29.19,South,178,0.0,3.0,98,0.07,,,1.43,42,org.tom.weather,2013-11-27 19:11:00,
2013-11-27 14:16:00,58.8,58.2,29.20,South,178,1.0,3.0,98,0.06,,,1.43,33,org.tom.weather,2013-11-27 19:16:00,
2013-11-27 14:21:00,58.5,57.9,29.20,South,178,0.0,2.0,98,0.06,,,1.43,33,org.tom.weather,2013-11-27 19:21:00,
2013-11-27 14:26:00,58.2,57.6,29.20,South,178,0.0,3.0,98,0.06,,,1.43,26,org.tom.weather,2013-11-27 19:26:00,
2013-11-27 14:31:00,57.9,57.3,29.20,South,178,0.0,3.0,98,0.05,,,1.43,46,org.tom.weather,2013-11-27 19:31:00,
2013-11-27 14:36:00,57.7,57.1,29.18,South,178,0.0,4.0,98,0.05,,,1.44,44,org.tom.weather,2013-11-27 19:36:00,
2013-11-27 14:41:00,57.6,57.0,29.18,South,176,0.0,1.0,98,0.03,,,1.44,32,org.tom.weather,2013-11-27 19:41:00,
2013-11-27 14:46:00,57.7,57.1,29.18,South,178,0.0,2.0,98,0.02,,,1.44,18,org.tom.weather,2013-11-27 19:46:00,
2013-11-27 14:51:00,57.6,57.0,29.19,South,178,0.0,2.0,98,0.02,,,1.44,14,org.tom.weather,2013-11-27 19:51:00,
2013-11-27 14:56:00,57.6,57.0,29.20,South,178,1.0,2.0,98,0.01,,,1.44,12,org.tom.weather,2013-11-27 19:56:00,
2013-11-27 15:01:00,57.3,56.7,29.19,South,178,0.0,2.0,98,0.01,,,1.44,14,org.tom.weather,2013-11-27 20:01:00,
2013-11-27 15:06:00,57.0,56.4,29.19,South,176,0.0,3.0,98,0.01,,,1.44,14,org.tom.weather,2013-11-27 20:06:00,
2013-11-27 15:11:00,56.9,56.3,29.20,South,178,0.0,0.0,98,0.02,,,1.45,12,org.tom.weather,2013-11-27 20:11:00,
2013-11-27 15:16:00,56.8,56.2,29.21,South,178,0.0,3.0,98,0.02,,,1.45,9,org.tom.weather,2013-11-27 20:16:00,
2013-11-27 15:21:00,56.8,56.2,29.21,South,178,0.0,2.0,98,0.02,,,1.45,7,org.tom.weather,2013-11-27 20:21:00,
2013-11-27 15:27:00,56.8,56.2,29.19,South,178,0.0,0.0,98,0.02,,,1.46,5,org.tom.weather,2013-11-27 20:27:00,
2013-11-27 15:31:00,56.8,56.2,29.17,South,178,0.0,0.0,98,0.02,,,1.46,5,org.tom.weather,2013-11-27 20:31:00,
2013-11-27 15:37:00,56.8,56.2,29.18,South,178,0.0,0.0,98,0.03,,,1.47,9,org.tom.weather,2013-11-27 20:37:00,
2013-11-27 15:42:00,57.1,56.5,29.18,South,178,0.0,1.0,98,0.03,,,1.47,5,org.tom.weather,2013-11-27 20:42:00,
2013-11-27 15:47:00,57.4,56.8,29.21,South,179,0.0,3.0,98,0.03,,,1.47,0,org.tom.weather,2013-11-27 20:47:00,
2013-11-27 15:52:00,57.7,57.1,29.20,South,179,0.0,2.0,98,0.03,,,1.47,0,org.tom.weather,2013-11-27 20:52:00,
2013-11-27 15:57:00,57.6,57.0,29.22,NNE,24,3.0,6.0,98,0.03,,,1.48,0,org.tom.weather,2013-11-27 20:57:00,
2013-11-27 16:02:00,55.4,54.8,29.22,WNW,300,2.0,9.0,98,0.04,,,1.48,0,org.tom.weather,2013-11-27 21:02:00,
2013-11-27 16:07:00,54.5,53.6,29.20,WNW,294,4.0,7.0,97,0.04,,,1.49,0,org.tom.weather,2013-11-27 21:07:00,
2013-11-27 16:12:00,54.1,53.2,29.21,WNW,290,1.0,7.0,97,0.04,,,1.49,0,org.tom.weather,2013-11-27 21:12:00,
2013-11-27 16:17:00,54.0,53.1,29.20,WNW,295,0.0,6.0,97,0.04,,,1.49,0,org.tom.weather,2013-11-27 21:17:00,
2013-11-27 16:22:00,53.3,52.4,29.20,NW,307,4.0,5.0,97,0.04,,,1.49,0,org.tom.weather,2013-11-27 21:22:00,
2013-11-27 16:27:00,52.9,52.0,29.20,SSW,192,1.0,7.0,97,0.03,,,1.49,0,org.tom.weather,2013-11-27 21:27:00,
2013-11-27 16:33:00,52.6,51.7,29.20,SSW,192,0.0,3.0,97,0.02,,,1.49,0,org.tom.weather,2013-11-27 21:33:00,
2013-11-27 16:38:00,52.4,51.5,29.21,SW,233,3.0,3.0,97,0.02,,,1.49,0,org.tom.weather,2013-11-27 21:38:00,
2013-11-27 16:43:00,52.3,51.4,29.21,WSW,248,2.0,4.0,97,0.02,,,1.49,0,org.tom.weather,2013-11-27 21:43:00,
2013-11-27 16:48:00,52.0,51.1,29.20,NNE,12,3.0,6.0,97,0.02,,,1.49,0,org.tom.weather,2013-11-27 21:48:00,
2013-11-27 16:53:00,51.7,50.8,29.19,NNE,19,1.0,6.0,97,0.02,,,1.49,0,org.tom.weather,2013-11-27 21:53:00,
2013-11-27 16:58:00,51.5,50.7,29.20,North,355,3.0,7.0,97,0.01,,,1.49,0,org.tom.weather,2013-11-27 21:58:00,
2013-11-27 17:03:00,51.2,50.4,29.20,NNW,327,1.0,4.0,97,0.01,,,1.49,0,org.tom.weather,2013-11-27 22:03:00,
2013-11-27 17:08:00,51.0,49.9,29.21,NNW,334,1.0,4.0,96,0.00,,,1.49,0,org.tom.weather,2013-11-27 22:08:00,
2013-11-27 17:13:00,50.9,49.8,29.19,NW,326,1.0,4.0,96,0.00,,,1.49,0,org.tom.weather,2013-11-27 22:13:00,
2013-11-27 17:18:00,50.7,49.6,29.21,North,350,4.0,7.0,96,0.00,,,1.49,0,org.tom.weather,2013-11-27 22:18:00,
2013-11-27 17:23:00,50.6,49.5,29.20,North,350,0.0,6.0,96,0.00,,,1.49,0,org.tom.weather,2013-11-27 22:23:00,
2013-11-27 17:29:00,50.5,49.4,29.19,North,351,0.0,3.0,96,0.00,,,1.49,0,org.tom.weather,2013-11-27 22:29:00,
2013-11-27 17:34:00,50.5,49.4,29.19,NNE,19,4.0,4.0,96,0.01,,,1.50,0,org.tom.weather,2013-11-27 22:34:00,
2013-11-27 17:39:00,50.4,49.3,29.19,NNE,19,0.0,4.0,96,0.01,,,1.50,0,org.tom.weather,2013-11-27 22:39:00,
2013-11-27 17:44:00,50.3,49.2,29.20,NNE,19,3.0,3.0,96,0.01,,,1.50,0,org.tom.weather,2013-11-27 22:44:00,
2013-11-27 17:49:00,50.2,49.1,29.19,NNE,32,1.0,5.0,96,0.01,,,1.50,0,org.tom.weather,2013-11-27 22:49:00,
2013-11-27 17:54:00,50.1,49.0,29.20,North,10,1.0,4.0,96,0.01,,,1.50,0,org.tom.weather,2013-11-27 22:54:00,
2013-11-27 17:59:00,50.1,49.0,29.20,North,10,0.0,4.0,96,0.01,,,1.50,0,org.tom.weather,2013-11-27 22:59:00,
2013-11-27 18:04:00,50.1,49.0,29.20,North,10,1.0,2.0,96,0.02,,,1.51,0,org.tom.weather,2013-11-27 23:04:00,
2013-11-27 18:09:00,50.0,48.9,29.21,NNW,343,0.0,4.0,96,0.02,,,1.51,0,org.tom.weather,2013-11-27 23:09:00,
2013-11-27 18:14:00,49.8,48.7,29.21,NNW,340,0.0,4.0,96,0.02,,,1.51,0,org.tom.weather,2013-11-27 23:14:00,
2013-11-27 18:19:00,49.6,48.5,29.21,NW,307,3.0,3.0,96,0.02,,,1.51,0,org.tom.weather,2013-11-27 23:19:00,
2013-11-27 18:24:00,49.4,48.3,29.22,NW,306,3.0,3.0,96,0.03,,,1.52,0,org.tom.weather,2013-11-27 23:24:00,
2013-11-27 18:29:00,49.1,48.0,29.22,NNE,21,1.0,7.0,96,0.03,,,1.52,0,org.tom.weather,2013-11-27 23:29:00,
2013-11-27 18:34:00,49.0,47.9,29.23,WNW,290,1.0,9.0,96,0.03,,,1.53,0,org.tom.weather,2013-11-27 23:34:00,
2013-11-27 18:39:00,48.8,47.7,29.22,West,276,0.0,4.0,96,0.03,,,1.53,0,org.tom.weather,2013-11-27 23:39:00,
2013-11-27 18:44:00,48.5,47.4,29.20,NNE,21,4.0,7.0,96,0.04,,,1.54,0,org.tom.weather,2013-11-27 23:44:00,
2013-11-27 18:49:00,48.2,46.8,29.20,West,271,0.0,6.0,95,0.04,,,1.54,0,org.tom.weather,2013-11-27 23:49:00,
2013-11-27 18:55:00,47.9,46.5,29.20,West,271,0.0,5.0,95,0.04,,,1.54,0,org.tom.weather,2013-11-27 23:55:00,
2013-11-27 19:00:00,47.7,46.3,29.20,West,271,1.0,3.0,95,0.03,,,1.54,0,org.tom.weather,2013-11-28 00:00:00,
2013-11-27 19:05:00,47.6,46.2,29.19,West,271,3.0,3.0,95,0.03,,,1.54,0,org.tom.weather,2013-11-28 00:05:00,
2013-11-27 19:10:00,47.4,46.0,29.18,NNW,341,2.0,4.0,95,0.03,,,1.54,0,org.tom.weather,2013-11-28 00:10:00,
2013-11-27 19:15:00,47.3,46.2,29.20,NW,316,4.0,4.0,96,0.03,,,1.54,0,org.tom.weather,2013-11-28 00:15:00,
2013-11-27 19:20:00,47.0,45.6,29.19,NE,35,1.0,6.0,95,0.03,,,1.54,0,org.tom.weather,2013-11-28 00:20:00,
2013-11-27 19:25:00,46.7,45.3,29.20,NNW,345,4.0,7.0,95,0.02,,,1.54,0,org.tom.weather,2013-11-28 00:25:00,
2013-11-27 19:30:00,46.5,45.1,29.18,NW,318,3.0,7.0,95,0.02,,,1.55,0,org.tom.weather,2013-11-28 00:30:00,
2013-11-27 19:35:00,46.2,44.8,29.19,NNW,342,2.0,6.0,95,0.02,,,1.55,0,org.tom.weather,2013-11-28 00:35:00,
2013-11-27 19:40:00,46.0,44.6,29.19,NNW,327,1.0,5.0,95,0.01,,,1.55,0,org.tom.weather,2013-11-28 00:40:00,
2013-11-27 19:45:00,45.6,44.0,29.20,NW,325,4.0,9.0,94,0.01,,,1.55,0,org.tom.weather,2013-11-28 00:45:00,
2013-11-27 19:50:00,45.5,43.9,29.21,WNW,298,2.0,10.0,94,0.01,,,1.55,0,org.tom.weather,2013-11-28 00:50:00,
2013-11-27 19:55:00,45.3,43.7,29.21,NW,314,4.0,7.0,94,0.01,,,1.55,0,org.tom.weather,2013-11-28 00:55:00,
2013-11-27 20:00:00,45.2,43.8,29.21,NNW,342,2.0,11.0,95,0.01,,,1.55,0,org.tom.weather,2013-11-28 01:00:00,
2013-11-27 20:05:00,44.9,43.3,29.23,NNE,15,3.0,13.0,94,0.01,,,1.55,0,org.tom.weather,2013-11-28 01:05:00,
2013-11-27 20:10:00,44.6,43.0,29.23,NW,318,1.0,11.0,94,0.01,,,1.55,0,org.tom.weather,2013-11-28 01:10:00,
2013-11-27 20:15:00,44.3,42.4,29.22,North,350,3.0,15.0,93,0.01,,,1.55,0,org.tom.weather,2013-11-28 01:15:00,
2013-11-27 20:20:00,44.1,42.2,29.23,NNW,346,3.0,12.0,93,0.01,,,1.55,0,org.tom.weather,2013-11-28 01:20:00,
2013-11-27 20:25:00,43.8,41.9,29.24,WNW,282,6.0,12.0,93,0.01,,,1.55,0,org.tom.weather,2013-11-28 01:25:00,
2013-11-27 20:30:00,43.5,41.6,29.24,NNW,336,3.0,13.0,93,0.00,,,1.55,0,org.tom.weather,2013-11-28 01:30:00,
2013-11-27 20:35:00,43.3,41.4,29.24,WNW,298,4.0,13.0,93,0.00,,,1.55,0,org.tom.weather,2013-11-28 01:35:00,
2013-11-27 20:40:00,43.2,41.3,29.25,NNW,330,0.0,14.0,93,0.00,,,1.55,0,org.tom.weather,2013-11-28 01:40:00,
2013-11-27 20:45:00,43.1,41.2,29.26,North,360,3.0,12.0,93,0.00,,,1.55,0,org.tom.weather,2013-11-28 01:45:00,
2013-11-27 20:50:00,42.9,41.0,29.26,WNW,282,4.0,12.0,93,0.00,,,1.55,0,org.tom.weather,2013-11-28 01:50:00,
2013-11-27 20:55:00,42.8,40.6,29.26,WNW,284,3.0,14.0,92,0.00,,,1.55,0,org.tom.weather,2013-11-28 01:55:00,
2013-11-27 21:00:00,42.6,40.4,29.27,WNW,300,3.0,11.0,92,0.00,,,1.55,0,org.tom.weather,2013-11-28 02:00:00,
2013-11-27 21:05:00,42.3,40.1,29.27,NNW,344,6.0,11.0,92,0.00,,,1.55,0,org.tom.weather,2013-11-28 02:05:00,
2013-11-27 21:10:00,42.0,39.6,29.28,NW,304,3.0,13.0,91,0.00,,,1.55,0,org.tom.weather,2013-11-28 02:10:00,
2013-11-27 21:15:00,41.7,39.3,29.28,NNW,338,6.0,12.0,91,0.01,,,1.56,0,org.tom.weather,2013-11-28 02:15:00,
2013-11-27 21:20:00,41.5,39.1,29.28,NW,315,6.0,14.0,91,0.01,,,1.56,0,org.tom.weather,2013-11-28 02:20:00,
2013-11-27 21:25:00,41.3,38.6,29.28,NNW,331,3.0,12.0,90,0.01,,,1.56,0,org.tom.weather,2013-11-28 02:25:00,
2013-11-27 21:30:00,41.2,38.5,29.28,North,355,2.0,19.0,90,0.01,,,1.56,0,org.tom.weather,2013-11-28 02:30:00,
2013-11-27 21:35:00,41.0,38.0,29.28,North,5,5.0,10.0,89,0.01,,,1.56,0,org.tom.weather,2013-11-28 02:35:00,
2013-11-27 21:40:00,41.0,38.0,29.28,NNE,17,5.0,12.0,89,0.01,,,1.56,0,org.tom.weather,2013-11-28 02:40:00,
2013-11-27 21:45:00,40.9,37.9,29.28,NE,37,11.0,11.0,89,0.01,,,1.56,0,org.tom.weather,2013-11-28 02:45:00,
2013-11-27 21:50:00,40.7,37.4,29.27,NNW,337,3.0,13.0,88,0.01,,,1.56,0,org.tom.weather,2013-11-28 02:50:00,
2013-11-27 21:55:00,40.6,37.3,29.27,NNW,346,5.0,14.0,88,0.01,,,1.56,0,org.tom.weather,2013-11-28 02:55:00,
2013-11-27 22:00:00,40.6,37.0,29.28,NNW,338,8.0,16.0,87,0.01,,,1.56,0,org.tom.weather,2013-11-28 03:00:00,
2013-11-27 22:05:00,40.5,37.2,29.28,North,355,0.0,13.0,88,0.01,,,1.56,0,org.tom.weather,2013-11-28 03:05:00,
2013-11-27 22:10:00,40.3,37.0,29.29,SW,219,3.0,6.0,88,0.01,,,1.56,0,org.tom.weather,2013-11-28 03:10:00,
2013-11-27 22:15:00,40.2,36.9,29.30,North,5,2.0,10.0,88,0.00,,,1.56,0,org.tom.weather,2013-11-28 03:15:00,
2013-11-27 22:20:00,40.2,36.9,29.30,West,279,4.0,12.0,88,0.00,,,1.56,0,org.tom.weather,2013-11-28 03:20:00,
2013-11-27 22:25:00,40.3,36.4,29.31,NNW,341,2.0,12.0,86,0.00,,,1.56,0,org.tom.weather,2013-11-28 03:25:00,
2013-11-27 22:30:00,40.1,36.5,29.31,West,270,1.0,10.0,87,0.00,,,1.56,0,org.tom.weather,2013-11-28 03:30:00,
2013-11-27 22:35:00,40.0,36.2,29.31,NNW,334,1.0,12.0,86,0.00,,,1.56,0,org.tom.weather,2013-11-28 03:35:00,
2013-11-27 22:40:00,39.9,36.1,29.31,NW,315,4.0,12.0,86,0.00,,,1.56,0,org.tom.weather,2013-11-28 03:40:00,
2013-11-27 22:45:00,39.8,36.0,29.31,NNE,21,1.0,10.0,86,0.00,,,1.56,0,org.tom.weather,2013-11-28 03:45:00,
2013-11-27 22:50:00,39.7,35.9,29.31,NW,320,5.0,8.0,86,0.00,,,1.56,0,org.tom.weather,2013-11-28 03:50:00,
2013-11-27 22:55:00,39.7,35.6,29.32,NNW,340,2.0,10.0,85,0.00,,,1.56,0,org.tom.weather,2013-11-28 03:55:00,
2013-11-27 23:00:00,39.7,35.6,29.34,WNW,303,4.0,10.0,85,0.00,,,1.56,0,org.tom.weather,2013-11-28 04:00:00,
2013-11-27 23:05:00,39.7,35.6,29.34,North,5,5.0,7.0,85,0.00,,,1.56,0,org.tom.weather,2013-11-28 04:05:00,
2013-11-27 23:10:00,39.6,35.2,29.34,North,360,3.0,13.0,84,0.00,,,1.56,0,org.tom.weather,2013-11-28 04:10:00,
2013-11-27 23:16:00,39.7,35.3,29.34,North,355,1.0,11.0,84,0.00,,,1.56,0,org.tom.weather,2013-11-28 04:16:00,
2013-11-27 23:21:00,39.5,34.8,29.34,NNW,337,3.0,12.0,83,0.00,,,1.56,0,org.tom.weather,2013-11-28 04:21:00,
2013-11-27 23:26:00,39.6,34.6,29.36,North,355,0.0,9.0,82,0.00,,,1.56,0,org.tom.weather,2013-11-28 04:26:00,
2013-11-27 23:31:00,39.6,34.3,29.36,NW,306,6.0,15.0,81,0.00,,,1.56,0,org.tom.weather,2013-11-28 04:31:00,
2013-11-27 23:36:00,39.6,33.9,29.37,West,279,9.0,11.0,80,0.00,,,1.56,0,org.tom.weather,2013-11-28 04:36:00,
2013-11-27 23:41:00,39.5,33.8,29.37,NW,313,4.0,12.0,80,0.00,,,1.56,0,org.tom.weather,2013-11-28 04:41:00,
2013-11-27 23:46:00,39.5,33.8,29.37,North,5,3.0,12.0,80,0.00,,,1.56,0,org.tom.weather,2013-11-28 04:46:00,
2013-11-27 23:51:00,39.4,33.8,29.38,NW,318,3.0,10.0,80,0.00,,,1.56,0,org.tom.weather,2013-11-28 04:51:00,
2013-11-27 23:56:00,39.2,33.9,29.39,NNE,13,4.0,8.0,81,0.00,,,1.56,0,org.tom.weather,2013-11-28 04:56:00,